| time (UTC) | temp C | wind direction | speed KPH | gust KPH | rain 1hr cm | rain 24hr cm | rain mn cm | humidity % | barometer mb |
| 20260510021510 | 23 | 91 | 0.0 | 6.4 | 0.00 | 0.03 | 0.03 | 82 | 1011.1 |
| 20260510020005 | 25 | 83 | 1.6 | 9.7 | 0.00 | 0.03 | 0.03 | 77 | 1010.6 |
| 20260510014549 | 25 | 119 | 1.6 | 8.0 | 0.00 | 0.03 | 0.03 | 74 | 1010.3 |
| 20260510013005 | 26 | 209 | 0.0 | 0.0 | 0.00 | 0.03 | 0.03 | 85 | 1009.3 |
| 20260510011607 | 26 | 209 | 0.0 | 0.0 | 0.00 | 0.03 | 0.03 | 87 | 1008.9 |
| 20260510010118 | 26 | 11 | 0.0 | 0.0 | 0.00 | 0.03 | 0.03 | 87 | 1008.8 |
| 20260510004528 | 26 | 10 | 0.0 | 0.0 | 0.00 | 0.03 | 0.03 | 86 | 1008.5 |
| 20260510003039 | 27 | 10 | 0.0 | 0.0 | 0.00 | 0.03 | 0.03 | 85 | 1008.3 |
| 20260510001557 | 27 | 10 | 0.0 | 0.0 | 0.00 | 0.03 | 0.03 | 84 | 1008.2 |
| 20260510000111 | 27 | 10 | 0.0 | 0.0 | 0.00 | 0.03 | 0.03 | 84 | 1008.1 |
| 20260509234529 | 27 | 10 | 0.0 | 1.6 | 0.00 | 0.20 | 0.03 | 82 | 1008.0 |
| 20260509233048 | 28 | 271 | 0.0 | 0.0 | 0.00 | 0.20 | 0.03 | 80 | 1008.1 |
| 20260509231515 | 28 | 270 | 0.0 | 0.0 | 0.00 | 0.20 | 0.03 | 78 | 1008.0 |
| 20260509230010 | 28 | 270 | 0.0 | 0.0 | 0.00 | 0.20 | 0.03 | 76 | 1008.0 |
| 20260509224607 | 28 | 270 | 0.0 | 0.0 | 0.00 | 0.20 | 0.03 | 75 | 1008.0 |
| 20260509223052 | 29 | 270 | 0.0 | 0.0 | 0.00 | 0.20 | 0.03 | 73 | 1007.8 |
| 20260509221535 | 29 | 270 | 0.0 | 0.0 | 0.00 | 0.20 | 0.03 | 74 | 1007.8 |
| 20260509220125 | 29 | 270 | 0.0 | 1.6 | 0.00 | 0.20 | 0.03 | 72 | 1007.8 |
| 20260509214544 | 29 | 270 | 0.0 | 0.0 | 0.00 | 0.20 | 0.03 | 74 | 1007.8 |
| 20260509213116 | 30 | 159 | 0.0 | 0.0 | 0.00 | 0.20 | 0.03 | 71 | 1007.8 |
| 20260509211604 | 30 | 159 | 0.0 | 0.0 | 0.00 | 0.20 | 0.03 | 70 | 1007.9 |
| 20260509210018 | 31 | 159 | 0.0 | 1.6 | 0.00 | 0.20 | 0.03 | 68 | 1008.0 |
| 20260509204557 | 30 | 128 | 0.0 | 1.6 | 0.00 | 0.20 | 0.03 | 71 | 1008.2 |
| 20260509203002 | 30 | 128 | 0.0 | 0.0 | 0.00 | 0.20 | 0.03 | 73 | 1008.2 |
| 20260509201544 | 30 | 128 | 0.0 | 1.6 | 0.00 | 0.20 | 0.03 | 72 | 1008.5 |
| 20260509200004 | 29 | 167 | 0.0 | 1.6 | 0.00 | 0.20 | 0.03 | 72 | 1008.8 |
| 20260509194547 | 29 | 167 | 0.0 | 1.6 | 0.00 | 0.20 | 0.03 | 78 | 1008.9 |
| 20260509193056 | 28 | 159 | 0.0 | 1.6 | 0.00 | 0.20 | 0.03 | 79 | 1009.2 |
| 20260509191506 | 27 | 151 | 0.0 | 0.0 | 0.00 | 0.20 | 0.03 | 83 | 1009.3 |
| 20260509190106 | 28 | 150 | 0.0 | 1.6 | 0.00 | 0.20 | 0.03 | 82 | 1009.4 |
| 20260509184506 | 27 | 150 | 0.0 | 3.2 | 0.00 | 0.20 | 0.03 | 85 | 1009.7 |
| 20260509183035 | 26 | 150 | 0.0 | 0.0 | 0.00 | 0.20 | 0.03 | 87 | 1009.9 |
| 20260509181516 | 27 | 150 | 0.0 | 0.0 | 0.00 | 0.20 | 0.03 | 86 | 1010.0 |
| 20260509180100 | 27 | 150 | 0.0 | 1.6 | 0.00 | 0.20 | 0.03 | 84 | 1010.3 |
| 20260509174517 | 26 | 178 | 0.0 | 0.0 | 0.00 | 0.20 | 0.03 | 90 | 1010.4 |
| 20260509173031 | 26 | 178 | 0.0 | 3.2 | 0.00 | 0.20 | 0.03 | 89 | 1010.6 |
| 20260509171510 | 25 | 73 | 0.0 | 1.6 | 0.00 | 0.20 | 0.03 | 92 | 1010.4 |
| 20260509170131 | 25 | 73 | 0.0 | 0.0 | 0.00 | 0.20 | 0.03 | 94 | 1010.3 |
| 20260509164543 | 24 | 73 | 0.0 | 0.0 | 0.00 | 0.20 | 0.03 | 94 | 1010.3 |
| 20260509163111 | 24 | 73 | 0.0 | 0.0 | 0.00 | 0.20 | 0.03 | 95 | 1010.5 |
| 20260509161540 | 24 | 76 | 0.0 | 1.6 | 0.00 | 0.20 | 0.03 | 96 | 1010.6 |
| 20260509160046 | 23 | 76 | 0.0 | 0.0 | 0.00 | 0.20 | 0.03 | 97 | 1010.8 |
| 20260509154600 | 23 | 123 | 0.0 | 1.6 | 0.00 | 0.20 | 0.03 | 97 | 1010.6 |
| 20260509153016 | 23 | 122 | 0.0 | 0.0 | 0.00 | 0.20 | 0.03 | 97 | 1010.8 |
| 20260509151552 | 23 | 122 | 0.0 | 0.0 | 0.00 | 0.20 | 0.03 | 97 | 1010.9 |
| 20260509150046 | 23 | 135 | 0.0 | 0.0 | 0.00 | 0.20 | 0.03 | 97 | 1010.7 |
| 20260509144555 | 23 | 135 | 0.0 | 0.0 | 0.00 | 0.20 | 0.03 | 97 | 1010.8 |
| 20260509143110 | 23 | 135 | 0.0 | 0.0 | 0.00 | 0.20 | 0.03 | 97 | 1010.5 |
| 20260509141539 | 23 | 135 | 0.0 | 0.0 | 0.00 | 0.20 | 0.03 | 97 | 1010.2 |
| 20260509140121 | 22 | 135 | 0.0 | 0.0 | 0.00 | 0.20 | 0.03 | 97 | 1010.1 |
| 20260509134603 | 22 | 135 | 0.0 | 0.0 | 0.00 | 0.20 | 0.03 | 97 | 1010.6 |
| 20260509133030 | 22 | 136 | 0.0 | 1.6 | 0.00 | 0.20 | 0.03 | 97 | 1010.7 |
| 20260509131537 | 22 | 136 | 0.0 | 0.0 | 0.00 | 0.20 | 0.03 | 97 | 1010.8 |
| 20260509130055 | 22 | 136 | 0.0 | 0.0 | 0.00 | 0.20 | 0.03 | 97 | 1010.8 |
| 20260509124505 | 22 | 136 | 0.0 | 0.0 | 0.00 | 0.20 | 0.03 | 97 | 1010.7 |
| 20260509123058 | 22 | 136 | 0.0 | 0.0 | 0.00 | 0.20 | 0.03 | 97 | 1010.9 |
| 20260509121537 | 22 | 115 | 0.0 | 0.0 | 0.00 | 0.20 | 0.03 | 97 | 1010.5 |
| 20260509120121 | 22 | 116 | 0.0 | 0.0 | 0.00 | 0.20 | 0.03 | 97 | 1010.2 |
| 20260509114556 | 22 | 117 | 0.0 | 0.0 | 0.00 | 0.20 | 0.03 | 97 | 1009.9 |
| 20260509113050 | 22 | 117 | 0.0 | 0.0 | 0.00 | 0.20 | 0.03 | 97 | 1009.8 |
| 20260509111509 | 22 | 115 | 0.0 | 0.0 | 0.00 | 0.20 | 0.03 | 97 | 1010.2 |
| 20260509110045 | 22 | 115 | 0.0 | 0.0 | 0.00 | 0.20 | 0.03 | 97 | 1010.0 |
| 20260509104553 | 22 | 115 | 0.0 | 0.0 | 0.00 | 0.20 | 0.03 | 96 | 1010.4 |
| 20260509103051 | 22 | 115 | 0.0 | 0.0 | 0.00 | 0.20 | 0.03 | 96 | 1010.4 |
| 20260509101533 | 22 | 115 | 0.0 | 0.0 | 0.00 | 0.20 | 0.03 | 96 | 1009.6 |
| 20260509100105 | 22 | 115 | 0.0 | 0.0 | 0.00 | 0.20 | 0.03 | 96 | 1009.4 |
| 20260509094600 | 22 | 115 | 0.0 | 0.0 | 0.00 | 0.20 | 0.03 | 96 | 1009.3 |
| 20260509093015 | 22 | 115 | 0.0 | 0.0 | 0.00 | 0.20 | 0.03 | 96 | 1009.8 |
| 20260509091557 | 22 | 115 | 0.0 | 0.0 | 0.00 | 0.20 | 0.03 | 96 | 1009.7 |
| 20260509090051 | 22 | 115 | 0.0 | 0.0 | 0.00 | 0.20 | 0.03 | 96 | 1010.0 |
| 20260509084605 | 22 | 115 | 0.0 | 0.0 | 0.00 | 0.20 | 0.03 | 96 | 1009.8 |
| 20260509083030 | 22 | 115 | 0.0 | 0.0 | 0.03 | 0.20 | 0.03 | 96 | 1009.8 |
| 20260509081502 | 22 | 115 | 0.0 | 0.0 | 0.03 | 0.20 | 0.03 | 96 | 1009.9 |
| 20260509080142 | 22 | 115 | 0.0 | 0.0 | 0.03 | 0.20 | 0.03 | 96 | 1009.8 |
| 20260509074528 | 22 | 115 | 0.0 | 0.0 | 0.03 | 0.20 | 0.03 | 96 | 1010.0 |
| 20260509073126 | 22 | 115 | 0.0 | 0.0 | 0.00 | 0.18 | 0.00 | 96 | 1010.1 |
| 20260509071526 | 22 | 115 | 0.0 | 0.0 | 0.00 | 0.18 | 0.00 | 96 | 1010.1 |
| 20260509070005 | 21 | 115 | 0.0 | 0.0 | 0.00 | 0.18 | 0.00 | 96 | 1010.2 |
| 20260509064549 | 21 | 115 | 0.0 | 0.0 | 0.00 | 0.18 | 0.00 | 96 | 1010.0 |
| 20260509063104 | 21 | 115 | 0.0 | 0.0 | 0.00 | 0.18 | 0.00 | 96 | 1010.2 |
| 20260509061555 | 21 | 115 | 0.0 | 0.0 | 0.00 | 0.18 | 0.00 | 96 | 1010.3 |
| 20260509060108 | 21 | 115 | 0.0 | 0.0 | 0.00 | 0.18 | 0.00 | 96 | 1010.4 |
| 20260509054534 | 21 | 115 | 0.0 | 0.0 | 0.00 | 0.18 | 0.00 | 96 | 1010.6 |
| 20260509053034 | 21 | 115 | 0.0 | 0.0 | 0.00 | 0.18 | 0.00 | 96 | 1010.6 |
| 20260509051605 | 21 | 115 | 0.0 | 0.0 | 0.00 | 0.18 | 0.00 | 96 | 1010.6 |
| 20260509050118 | 21 | 115 | 0.0 | 0.0 | 0.00 | 0.18 | 0.00 | 96 | 1010.6 |
| 20260509044557 | 21 | 115 | 0.0 | 0.0 | 0.00 | 0.18 | 0.18 | 96 | 1010.6 |
| 20260509043054 | 21 | 115 | 0.0 | 0.0 | 0.00 | 0.18 | 0.18 | 96 | 1010.5 |
| 20260509041536 | 21 | 115 | 0.0 | 0.0 | 0.00 | 0.18 | 0.18 | 96 | 1010.7 |
| 20260509040106 | 21 | 115 | 0.0 | 0.0 | 0.00 | 0.18 | 0.18 | 96 | 1010.4 |
| 20260509034559 | 21 | 115 | 0.0 | 0.0 | 0.00 | 0.18 | 0.18 | 96 | 1010.4 |
| 20260509033056 | 21 | 115 | 0.0 | 0.0 | 0.00 | 0.18 | 0.18 | 96 | 1010.3 |
| 20260509031605 | 21 | 115 | 0.0 | 1.6 | 0.00 | 0.18 | 0.18 | 95 | 1010.2 |
| 20260509030122 | 21 | 115 | 0.0 | 3.2 | 0.00 | 0.18 | 0.18 | 95 | 1010.1 |
| 20260509024535 | 21 | 120 | 0.0 | 0.0 | 0.00 | 0.18 | 0.18 | 96 | 1010.1 |
| 20260509023059 | 21 | 120 | 0.0 | 0.0 | 0.00 | 0.18 | 0.18 | 95 | 1009.8 |